createdAt,value
2023-05-24T00:00:32.410Z,0.00
2023-05-24T00:01:32.311Z,0.00
2023-05-24T00:02:32.449Z,0.00
2023-05-24T00:03:32.415Z,0.00
2023-05-24T00:04:32.390Z,0.00
2023-05-24T00:05:32.282Z,0.00
2023-05-24T00:06:32.333Z,0.00
2023-05-24T00:07:32.253Z,0.00
2023-05-24T00:08:32.328Z,0.00
2023-05-24T00:09:32.227Z,0.00
2023-05-24T00:10:32.295Z,0.00
2023-05-24T00:11:32.209Z,0.00
2023-05-24T00:12:32.271Z,0.00
2023-05-24T00:13:32.190Z,0.00
2023-05-24T00:14:32.262Z,0.00
2023-05-24T00:15:32.164Z,0.00
2023-05-24T00:16:32.312Z,0.00
2023-05-24T00:17:32.184Z,0.00
2023-05-24T00:18:32.220Z,0.00
2023-05-24T00:19:32.121Z,0.00
2023-05-24T00:20:32.231Z,0.00
2023-05-24T00:21:32.110Z,0.00
2023-05-24T00:22:32.174Z,0.00
2023-05-24T00:23:32.097Z,0.00
2023-05-24T00:24:32.160Z,0.00
2023-05-24T00:25:32.077Z,0.00
2023-05-24T00:26:32.122Z,0.00
2023-05-24T00:27:32.037Z,0.00
2023-05-24T00:28:32.103Z,0.00
2023-05-24T00:29:32.454Z,0.00
2023-05-24T00:30:32.075Z,0.00
2023-05-24T00:31:32.045Z,0.00
2023-05-24T00:32:32.096Z,0.00
2023-05-24T00:33:31.982Z,0.00
2023-05-24T00:34:32.051Z,0.00
2023-05-24T00:35:31.952Z,0.00
2023-05-24T00:36:32.019Z,0.00
2023-05-24T00:37:31.946Z,0.00
2023-05-24T00:38:32.018Z,0.00
2023-05-24T00:39:31.914Z,0.00
2023-05-24T00:40:32.001Z,0.00
2023-05-24T00:41:31.891Z,0.00
2023-05-24T00:42:31.964Z,0.00
2023-05-24T00:43:31.864Z,0.00
2023-05-24T00:44:31.974Z,0.00
2023-05-24T00:45:33.713Z,0.00
2023-05-24T00:46:32.051Z,0.00
2023-05-24T00:47:31.866Z,0.00
2023-05-24T00:48:31.914Z,0.00
2023-05-24T00:49:31.811Z,0.00
2023-05-24T00:50:31.877Z,0.00
2023-05-24T00:51:31.794Z,0.00
2023-05-24T00:52:31.864Z,0.00
2023-05-24T00:53:31.763Z,0.00
2023-05-24T00:54:31.828Z,0.00
2023-05-24T00:55:31.758Z,0.00
2023-05-24T00:56:31.829Z,0.00
2023-05-24T00:57:31.721Z,0.00
2023-05-24T00:58:31.797Z,0.00
2023-05-24T00:59:31.700Z,0.00
2023-05-24T01:00:31.772Z,0.00
2023-05-24T01:01:31.695Z,0.00
2023-05-24T01:02:31.817Z,0.00
2023-05-24T01:03:31.727Z,0.00
2023-05-24T01:04:31.725Z,0.00
2023-05-24T01:05:31.645Z,0.00
2023-05-24T01:06:31.711Z,0.00
2023-05-24T01:07:31.633Z,0.00
2023-05-24T01:08:31.701Z,0.00
2023-05-24T01:09:31.611Z,0.00
2023-05-24T01:10:31.661Z,0.00
2023-05-24T01:11:31.571Z,0.00
2023-05-24T01:12:31.641Z,0.00
2023-05-24T01:13:31.554Z,0.00
2023-05-24T01:14:31.631Z,0.00
2023-05-24T01:15:31.537Z,0.00
2023-05-24T01:16:31.724Z,0.00
2023-05-24T01:17:31.529Z,0.00
2023-05-24T01:18:31.581Z,0.00
2023-05-24T01:19:31.495Z,0.00
2023-05-24T01:20:31.628Z,0.00
2023-05-24T01:21:31.472Z,0.00
2023-05-24T01:22:31.547Z,0.00
2023-05-24T01:23:31.451Z,0.00
2023-05-24T01:24:31.520Z,0.00
2023-05-24T01:25:31.431Z,0.00
2023-05-24T01:26:31.493Z,0.00
2023-05-24T01:27:31.410Z,0.00
2023-05-24T01:28:31.474Z,0.00
2023-05-24T01:29:31.389Z,0.00
2023-05-24T01:30:31.478Z,0.00
2023-05-24T01:31:31.404Z,0.00
2023-05-24T01:32:31.449Z,0.00
2023-05-24T01:33:31.346Z,0.00
2023-05-24T01:34:31.422Z,0.00
2023-05-24T01:35:31.324Z,0.00
2023-05-24T01:36:31.408Z,0.00
2023-05-24T01:37:31.301Z,0.00
2023-05-24T01:38:31.366Z,0.00
2023-05-24T01:39:31.281Z,0.00
2023-05-24T01:40:31.357Z,0.00
2023-05-24T01:41:31.259Z,0.00
2023-05-24T01:42:31.322Z,0.00
2023-05-24T01:43:31.234Z,0.00
2023-05-24T01:44:31.302Z,0.00
2023-05-24T01:45:31.224Z,0.00
2023-05-24T01:46:31.329Z,0.00
2023-05-24T01:47:31.234Z,0.00
2023-05-24T01:48:31.286Z,0.00
2023-05-24T01:49:31.189Z,0.00
2023-05-24T01:50:31.252Z,0.00
2023-05-24T01:51:31.159Z,0.00
2023-05-24T01:52:31.261Z,0.00
2023-05-24T01:53:31.131Z,0.00
2023-05-24T01:54:31.210Z,0.00
2023-05-24T01:55:31.116Z,0.00
2023-05-24T01:56:31.185Z,0.00
2023-05-24T01:57:31.099Z,0.00
2023-05-24T01:58:31.151Z,0.00
2023-05-24T01:59:31.062Z,0.00
2023-05-24T02:00:31.134Z,0.00
2023-05-24T02:01:31.119Z,0.00
2023-05-24T02:02:31.165Z,0.00
2023-05-24T02:03:31.042Z,0.00
2023-05-24T02:04:31.129Z,0.00
2023-05-24T02:05:31.009Z,0.00
2023-05-24T02:06:31.077Z,0.00
2023-05-24T02:07:30.982Z,0.00
2023-05-24T02:08:31.109Z,0.00
2023-05-24T02:09:30.961Z,0.00
2023-05-24T02:10:31.039Z,0.00
2023-05-24T02:11:30.942Z,0.00
2023-05-24T02:12:31.011Z,0.00
2023-05-24T02:13:30.920Z,0.00
2023-05-24T02:14:31.001Z,0.00
2023-05-24T02:15:30.898Z,0.00
2023-05-24T02:16:31.021Z,0.00
2023-05-24T02:17:30.938Z,0.00
2023-05-24T02:18:30.944Z,0.00
2023-05-24T02:19:30.857Z,0.00
2023-05-24T02:20:31.316Z,0.00
2023-05-24T02:21:30.841Z,0.00
2023-05-24T02:22:30.915Z,0.00
2023-05-24T02:23:30.820Z,0.00
2023-05-24T02:24:30.890Z,0.00
2023-05-24T02:25:30.788Z,0.00
2023-05-24T02:26:30.868Z,0.00
2023-05-24T02:27:30.772Z,0.00
2023-05-24T02:28:30.844Z,0.00
2023-05-24T02:29:30.753Z,0.00
2023-05-24T02:30:30.813Z,0.00
2023-05-24T02:31:30.877Z,0.00
2023-05-24T02:32:30.814Z,0.00
2023-05-24T02:33:30.709Z,0.00
2023-05-24T02:34:30.792Z,0.00
2023-05-24T02:35:30.695Z,0.00
2023-05-24T02:36:30.759Z,0.00
2023-05-24T02:37:30.692Z,0.00
2023-05-24T02:38:30.741Z,0.00
2023-05-24T02:39:30.659Z,0.00
2023-05-24T02:40:30.749Z,0.00
2023-05-24T02:41:30.626Z,0.00
2023-05-24T02:42:30.697Z,0.00
2023-05-24T02:43:30.611Z,0.00
2023-05-24T02:44:30.680Z,0.00
2023-05-24T02:45:30.584Z,0.00
2023-05-24T02:46:30.718Z,0.00
2023-05-24T02:47:30.609Z,0.00
2023-05-24T02:48:30.669Z,0.00
2023-05-24T02:49:30.532Z,0.00
2023-05-24T02:50:30.600Z,0.00
2023-05-24T02:51:30.524Z,0.00
2023-05-24T02:52:30.599Z,0.00
2023-05-24T02:53:30.495Z,0.00
2023-05-24T02:54:30.518Z,0.00
2023-05-24T02:55:30.551Z,0.00
2023-05-24T02:56:30.433Z,0.00
2023-05-24T02:57:30.472Z,0.00
2023-05-24T02:58:30.417Z,0.00
2023-05-24T02:59:30.452Z,0.00
2023-05-24T03:00:30.371Z,0.00
2023-05-24T03:01:30.862Z,0.00
2023-05-24T03:02:30.446Z,0.00
2023-05-24T03:03:30.453Z,0.00
2023-05-24T03:04:30.337Z,0.00
2023-05-24T03:05:30.400Z,0.00
2023-05-24T03:06:30.315Z,0.00
2023-05-24T03:07:30.368Z,0.00
2023-05-24T03:08:30.294Z,0.00
2023-05-24T03:09:30.346Z,0.00
2023-05-24T03:10:30.271Z,0.00
2023-05-24T03:11:30.321Z,0.00
2023-05-24T03:12:30.253Z,0.00
2023-05-24T03:13:30.301Z,0.00
2023-05-24T03:14:30.226Z,0.00
2023-05-24T03:15:30.289Z,0.00
2023-05-24T03:16:30.241Z,0.00
2023-05-24T03:17:30.304Z,0.00
2023-05-24T03:18:30.191Z,0.00
2023-05-24T03:19:30.238Z,0.00
2023-05-24T03:20:30.218Z,0.00
2023-05-24T03:21:30.219Z,0.00
2023-05-24T03:22:30.148Z,0.00
2023-05-24T03:23:30.198Z,0.00
2023-05-24T03:24:30.129Z,0.00
2023-05-24T03:25:30.169Z,0.00
2023-05-24T03:26:30.112Z,0.00
2023-05-24T03:27:30.162Z,0.00
2023-05-24T03:28:30.089Z,0.00
2023-05-24T03:29:30.142Z,0.00
2023-05-24T03:30:30.077Z,0.00
2023-05-24T03:31:30.161Z,0.00
2023-05-24T03:32:30.061Z,0.00
2023-05-24T03:33:30.089Z,0.00
2023-05-24T03:34:30.019Z,0.00
2023-05-24T03:35:30.073Z,0.00
2023-05-24T03:36:30.001Z,0.00
2023-05-24T03:37:30.045Z,0.00
2023-05-24T03:38:29.976Z,0.00
2023-05-24T03:39:30.019Z,0.00
2023-05-24T03:40:29.956Z,0.00
2023-05-24T03:41:30.020Z,0.00
2023-05-24T03:42:29.943Z,0.00
2023-05-24T03:43:29.976Z,0.00
2023-05-24T03:44:29.915Z,0.00
2023-05-24T03:45:38.582Z,5.62
2023-05-24T03:46:29.915Z,5.62
2023-05-24T03:47:29.964Z,5.62
2023-05-24T03:48:29.891Z,5.62
2023-05-24T03:49:29.922Z,5.62
2023-05-24T03:50:29.861Z,5.62
2023-05-24T03:51:29.930Z,5.62
2023-05-24T03:52:29.843Z,0.00
2023-05-24T03:53:29.875Z,0.00
2023-05-24T03:54:29.821Z,0.00
2023-05-24T03:55:29.881Z,0.00
2023-05-24T03:56:29.784Z,0.00
2023-05-24T03:57:29.839Z,0.00
2023-05-24T03:58:29.755Z,0.00
2023-05-24T03:59:29.842Z,0.00
2023-05-24T04:00:29.746Z,0.00
2023-05-24T04:01:33.861Z,0.00
2023-05-24T04:02:29.759Z,0.00
2023-05-24T04:03:29.884Z,0.00
2023-05-24T04:04:29.691Z,0.00
2023-05-24T04:05:29.760Z,0.00
2023-05-24T04:06:29.795Z,0.00
2023-05-24T04:07:29.741Z,0.00
2023-05-24T04:08:29.652Z,0.00
2023-05-24T04:09:29.711Z,0.00
2023-05-24T04:10:29.621Z,0.00
2023-05-24T04:11:29.697Z,0.00
2023-05-24T04:12:29.610Z,0.00
2023-05-24T04:13:29.671Z,0.00
2023-05-24T04:14:29.590Z,0.00
2023-05-24T04:15:29.650Z,0.00
2023-05-24T04:16:29.609Z,0.00
2023-05-24T04:17:29.836Z,0.00
2023-05-24T04:18:29.610Z,0.00
2023-05-24T04:19:29.610Z,0.00
2023-05-24T04:20:29.600Z,0.00
2023-05-24T04:21:29.591Z,0.00
2023-05-24T04:22:29.494Z,5.62
2023-05-24T04:23:29.570Z,5.62
2023-05-24T04:24:29.531Z,0.00
2023-05-24T04:25:29.548Z,0.00
2023-05-24T04:26:29.446Z,0.00
2023-05-24T04:27:29.549Z,0.00
2023-05-24T04:28:29.440Z,0.00
2023-05-24T04:29:29.540Z,5.62
2023-05-24T04:30:29.412Z,5.62
2023-05-24T04:31:29.532Z,5.62
2023-05-24T04:32:29.468Z,5.62
2023-05-24T04:33:29.455Z,5.62
2023-05-24T04:34:29.370Z,5.62
2023-05-24T04:35:29.448Z,5.62
2023-05-24T04:36:29.348Z,11.25
2023-05-24T04:37:29.432Z,11.25
2023-05-24T04:38:29.333Z,5.62
2023-05-24T04:39:29.398Z,11.25
2023-05-24T04:40:29.322Z,5.62
2023-05-24T04:41:29.373Z,5.62
2023-05-24T04:42:29.291Z,11.25
2023-05-24T04:43:29.364Z,5.62
2023-05-24T04:44:29.263Z,5.62
2023-05-24T04:45:29.365Z,5.62
2023-05-24T04:46:29.288Z,5.62
2023-05-24T04:47:29.355Z,5.62
2023-05-24T04:48:29.237Z,11.25
2023-05-24T04:49:29.321Z,11.25
2023-05-24T04:50:29.204Z,11.25
2023-05-24T04:51:29.311Z,16.87
2023-05-24T04:52:29.182Z,16.87
2023-05-24T04:53:29.256Z,16.87
2023-05-24T04:54:29.190Z,16.87
2023-05-24T04:55:29.239Z,16.87
2023-05-24T04:56:29.139Z,16.87
2023-05-24T04:57:29.246Z,16.87
2023-05-24T04:58:29.120Z,16.87
2023-05-24T04:59:29.193Z,22.50
2023-05-24T05:00:29.109Z,28.12
2023-05-24T05:01:29.190Z,22.50
2023-05-24T05:02:29.096Z,22.50
2023-05-24T05:03:29.209Z,22.50
2023-05-24T05:04:29.067Z,22.50
2023-05-24T05:05:29.128Z,16.87
2023-05-24T05:06:29.043Z,22.50
2023-05-24T05:07:29.100Z,22.50
2023-05-24T05:08:29.012Z,22.50
2023-05-24T05:09:29.088Z,16.87
2023-05-24T05:10:29.008Z,22.50
2023-05-24T05:11:29.059Z,16.87
2023-05-24T05:12:28.974Z,11.25
2023-05-24T05:13:29.035Z,11.25
2023-05-24T05:14:28.949Z,11.25
2023-05-24T05:15:29.013Z,11.25
2023-05-24T05:16:28.992Z,11.25
2023-05-24T05:17:29.038Z,11.25
2023-05-24T05:18:28.900Z,11.25
2023-05-24T05:19:28.980Z,11.25
2023-05-24T05:20:28.906Z,5.62
2023-05-24T05:21:28.948Z,5.62
2023-05-24T05:22:30.666Z,5.62
2023-05-24T05:23:28.943Z,5.62
2023-05-24T05:24:28.850Z,5.62
2023-05-24T05:25:28.915Z,5.62
2023-05-24T05:26:28.830Z,5.62
2023-05-24T05:27:28.886Z,11.25
2023-05-24T05:28:28.806Z,11.25
2023-05-24T05:29:28.865Z,16.87
2023-05-24T05:30:28.790Z,16.87
2023-05-24T05:31:28.847Z,16.87
2023-05-24T05:32:28.815Z,16.87
2023-05-24T05:33:28.865Z,16.87
2023-05-24T05:34:28.739Z,16.87
2023-05-24T05:35:28.809Z,16.87
2023-05-24T05:36:28.718Z,28.12
2023-05-24T05:37:28.792Z,16.87
2023-05-24T05:38:28.708Z,16.87
2023-05-24T05:39:28.776Z,16.87
2023-05-24T05:40:28.682Z,16.87
2023-05-24T05:41:28.753Z,16.87
2023-05-24T05:42:28.655Z,16.87
2023-05-24T05:43:28.722Z,22.50
2023-05-24T05:44:28.627Z,22.50
2023-05-24T05:45:28.710Z,22.50
2023-05-24T05:46:28.638Z,28.12
2023-05-24T05:47:28.723Z,22.50
2023-05-24T05:48:28.616Z,22.50
2023-05-24T05:49:28.658Z,28.12
2023-05-24T05:50:28.570Z,33.75
2023-05-24T05:51:28.648Z,33.75
2023-05-24T05:52:28.563Z,33.75
2023-05-24T05:53:28.625Z,39.37
2023-05-24T05:54:28.538Z,39.37
2023-05-24T05:55:28.626Z,33.75
2023-05-24T05:56:28.508Z,39.37
2023-05-24T05:57:28.576Z,39.37
2023-05-24T05:58:28.489Z,39.37
2023-05-24T05:59:28.557Z,39.37
2023-05-24T06:00:28.472Z,45.00
2023-05-24T06:01:28.529Z,45.00
2023-05-24T06:02:28.543Z,50.62
2023-05-24T06:03:28.792Z,39.37
2023-05-24T06:04:28.477Z,45.00
2023-05-24T06:05:28.505Z,39.37
2023-05-24T06:06:28.402Z,39.37
2023-05-24T06:07:28.474Z,39.37
2023-05-24T06:08:28.376Z,39.37
2023-05-24T06:09:28.473Z,39.37
2023-05-24T06:10:28.357Z,39.37
2023-05-24T06:11:28.425Z,39.37
2023-05-24T06:12:28.336Z,45.00
2023-05-24T06:13:28.402Z,56.25
2023-05-24T06:14:28.328Z,50.62
2023-05-24T06:15:28.393Z,50.62
2023-05-24T06:16:28.337Z,56.25
2023-05-24T06:17:28.383Z,56.25
2023-05-24T06:18:28.273Z,78.75
2023-05-24T06:19:28.359Z,78.75
2023-05-24T06:20:28.326Z,101.25
2023-05-24T06:21:28.313Z,123.75
2023-05-24T06:22:28.241Z,247.50
2023-05-24T06:23:28.299Z,348.75
2023-05-24T06:24:28.209Z,95.62
2023-05-24T06:25:28.275Z,219.37
2023-05-24T06:26:28.186Z,275.62
2023-05-24T06:27:28.257Z,427.50
2023-05-24T06:28:28.181Z,196.87
2023-05-24T06:29:28.235Z,292.50
2023-05-24T06:30:28.392Z,950.62
2023-05-24T06:31:28.293Z,888.75
2023-05-24T06:32:28.160Z,793.12
2023-05-24T06:33:28.207Z,973.12
2023-05-24T06:34:28.099Z,978.75
2023-05-24T06:35:28.371Z,978.75
2023-05-24T06:36:28.181Z,697.50
2023-05-24T06:37:28.159Z,123.75
2023-05-24T06:38:28.059Z,118.12
2023-05-24T06:39:28.139Z,196.87
2023-05-24T06:40:28.064Z,191.25
2023-05-24T06:41:28.135Z,163.12
2023-05-24T06:42:28.025Z,241.87
2023-05-24T06:43:28.113Z,225.00
2023-05-24T06:44:28.005Z,135.00
2023-05-24T06:45:28.110Z,292.50
2023-05-24T06:46:28.004Z,230.62
2023-05-24T06:47:28.130Z,191.25
2023-05-24T06:48:28.044Z,67.50
2023-05-24T06:49:28.038Z,78.75
2023-05-24T06:50:27.940Z,101.25
2023-05-24T06:51:28.002Z,50.62
2023-05-24T06:52:27.914Z,61.87
2023-05-24T06:53:27.982Z,39.37
2023-05-24T06:54:27.892Z,33.75
2023-05-24T06:55:27.986Z,33.75
2023-05-24T06:56:27.876Z,28.12
2023-05-24T06:57:27.962Z,28.12
2023-05-24T06:58:27.851Z,39.37
2023-05-24T06:59:27.919Z,61.87
2023-05-24T07:00:27.828Z,45.00
2023-05-24T07:01:27.943Z,39.37
2023-05-24T07:02:27.821Z,33.75
2023-05-24T07:03:27.904Z,45.00
2023-05-24T07:04:27.854Z,39.37
2023-05-24T07:05:27.849Z,50.62
2023-05-24T07:06:27.771Z,67.50
2023-05-24T07:07:27.830Z,39.37
2023-05-24T07:08:27.744Z,45.00
2023-05-24T07:09:27.825Z,45.00
2023-05-24T07:10:27.728Z,90.00
2023-05-24T07:11:27.886Z,67.50
2023-05-24T07:12:27.699Z,106.87
2023-05-24T07:13:27.794Z,95.62
2023-05-24T07:14:27.685Z,112.50
2023-05-24T07:15:27.753Z,135.00
2023-05-24T07:16:27.686Z,191.25
2023-05-24T07:17:27.784Z,225.00
2023-05-24T07:18:27.640Z,95.62
2023-05-24T07:19:27.740Z,157.50
2023-05-24T07:20:27.654Z,78.75
2023-05-24T07:21:27.680Z,56.25
2023-05-24T07:22:27.593Z,56.25
2023-05-24T07:23:27.653Z,84.37
2023-05-24T07:24:27.574Z,61.87
2023-05-24T07:25:27.635Z,45.00
2023-05-24T07:26:27.550Z,45.00
2023-05-24T07:27:27.612Z,45.00
2023-05-24T07:28:27.530Z,50.62
2023-05-24T07:29:27.604Z,61.87
2023-05-24T07:30:32.178Z,56.25
2023-05-24T07:31:27.617Z,45.00
2023-05-24T07:32:27.580Z,73.12
2023-05-24T07:33:27.718Z,118.12
2023-05-24T07:34:27.518Z,112.50
2023-05-24T07:35:27.527Z,73.12
2023-05-24T07:36:27.442Z,112.50
2023-05-24T07:37:27.505Z,157.50
2023-05-24T07:38:27.439Z,123.75
2023-05-24T07:39:27.490Z,90.00
2023-05-24T07:40:27.402Z,106.87
2023-05-24T07:41:27.472Z,78.75
2023-05-24T07:42:27.404Z,84.37
2023-05-24T07:43:27.463Z,101.25
2023-05-24T07:44:27.361Z,101.25
2023-05-24T07:45:27.428Z,84.37
2023-05-24T07:46:27.367Z,73.12
2023-05-24T07:47:27.447Z,84.37
2023-05-24T07:48:27.324Z,78.75
2023-05-24T07:49:27.392Z,106.87
2023-05-24T07:50:27.294Z,106.87
2023-05-24T07:51:27.361Z,78.75
2023-05-24T07:52:27.276Z,78.75
2023-05-24T07:53:27.354Z,67.50
2023-05-24T07:54:27.392Z,45.00
2023-05-24T07:55:27.266Z,50.62
2023-05-24T07:56:27.324Z,56.25
2023-05-24T07:57:27.236Z,73.12
2023-05-24T07:58:27.272Z,67.50
2023-05-24T07:59:27.214Z,61.87
2023-05-24T08:00:27.259Z,50.62
2023-05-24T08:01:27.209Z,50.62
2023-05-24T08:02:27.305Z,56.25
2023-05-24T08:03:27.310Z,61.87
2023-05-24T08:04:27.230Z,67.50
2023-05-24T08:05:27.151Z,78.75
2023-05-24T08:06:27.238Z,84.37
2023-05-24T08:07:27.214Z,90.00
2023-05-24T08:08:27.217Z,90.00
2023-05-24T08:09:27.104Z,73.12
2023-05-24T08:10:27.147Z,50.62
2023-05-24T08:11:27.090Z,50.62
2023-05-24T08:12:27.134Z,56.25
2023-05-24T08:13:27.071Z,67.50
2023-05-24T08:14:27.130Z,67.50
2023-05-24T08:15:27.174Z,118.12
2023-05-24T08:16:27.055Z,106.87
2023-05-24T08:17:27.360Z,61.87
2023-05-24T08:18:27.007Z,56.25
2023-05-24T08:19:27.063Z,61.87
2023-05-24T08:20:27.010Z,84.37
2023-05-24T08:21:27.028Z,101.25
2023-05-24T08:22:26.959Z,90.00
2023-05-24T08:23:27.045Z,73.12
2023-05-24T08:24:26.943Z,67.50
2023-05-24T08:25:26.996Z,95.62
2023-05-24T08:26:26.929Z,101.25
2023-05-24T08:27:26.975Z,112.50
2023-05-24T08:28:26.960Z,106.87
2023-05-24T08:29:26.954Z,106.87
2023-05-24T08:30:26.925Z,106.87
2023-05-24T08:31:26.948Z,95.62
2023-05-24T08:32:27.180Z,106.87
2023-05-24T08:33:26.908Z,95.62
2023-05-24T08:34:26.840Z,101.25
2023-05-24T08:35:26.891Z,101.25
2023-05-24T08:36:26.821Z,90.00
2023-05-24T08:37:26.866Z,95.62
2023-05-24T08:38:26.799Z,90.00
2023-05-24T08:39:26.840Z,95.62
2023-05-24T08:40:26.788Z,95.62
2023-05-24T08:41:26.811Z,95.62
2023-05-24T08:42:26.754Z,106.87
2023-05-24T08:43:26.816Z,118.12
2023-05-24T08:44:26.739Z,11.25
2023-05-24T08:45:26.776Z,16.87
2023-05-24T08:46:26.736Z,16.87
2023-05-24T08:47:26.777Z,16.87
2023-05-24T08:48:26.902Z,16.87
2023-05-24T08:49:26.739Z,16.87
2023-05-24T08:50:26.673Z,16.87
2023-05-24T08:51:26.722Z,5.62
2023-05-24T08:52:26.649Z,5.62
2023-05-24T08:53:26.721Z,5.62
2023-05-24T08:54:26.626Z,11.25
2023-05-24T08:55:31.034Z,11.25
2023-05-24T08:56:26.613Z,11.25
2023-05-24T08:57:26.656Z,16.87
2023-05-24T08:58:26.585Z,33.75
2023-05-24T08:59:26.623Z,33.75
2023-05-24T09:00:26.578Z,33.75
2023-05-24T09:01:28.930Z,33.75
2023-05-24T09:02:26.543Z,33.75
2023-05-24T09:03:26.704Z,39.37
2023-05-24T09:04:26.601Z,33.75
2023-05-24T09:05:26.614Z,28.12
2023-05-24T09:06:26.501Z,28.12
2023-05-24T09:07:26.564Z,28.12
2023-05-24T09:08:26.486Z,28.12
2023-05-24T09:09:26.533Z,28.12
2023-05-24T09:10:26.467Z,28.12
2023-05-24T09:11:26.504Z,28.12
2023-05-24T09:12:36.639Z,28.12
2023-05-24T09:13:26.492Z,28.12
2023-05-24T09:14:26.417Z,33.75
2023-05-24T09:15:26.465Z,33.75
2023-05-24T09:16:26.460Z,39.37
2023-05-24T09:17:26.470Z,39.37
2023-05-24T09:18:26.376Z,39.37
2023-05-24T09:19:26.445Z,45.00
2023-05-24T09:20:26.437Z,45.00
2023-05-24T09:21:26.472Z,45.00
2023-05-24T09:22:26.332Z,45.00
2023-05-24T09:23:26.381Z,45.00
2023-05-24T09:24:26.316Z,39.37
2023-05-24T09:25:26.356Z,39.37
2023-05-24T09:26:26.301Z,39.37
2023-05-24T09:27:26.326Z,39.37
2023-05-24T09:28:26.277Z,45.00
2023-05-24T09:29:26.326Z,50.62
2023-05-24T09:30:26.263Z,50.62
2023-05-24T09:31:26.392Z,45.00
2023-05-24T09:32:26.324Z,39.37
2023-05-24T09:33:26.279Z,33.75
2023-05-24T09:34:26.220Z,28.12
2023-05-24T09:35:26.249Z,22.50
2023-05-24T09:36:26.178Z,22.50
2023-05-24T09:37:30.692Z,22.50
2023-05-24T09:38:26.155Z,22.50
2023-05-24T09:39:26.201Z,16.87
2023-05-24T09:40:26.148Z,16.87
2023-05-24T09:41:26.209Z,16.87
2023-05-24T09:42:26.119Z,16.87
2023-05-24T09:43:26.640Z,16.87
2023-05-24T09:44:26.095Z,16.87
2023-05-24T09:45:26.131Z,22.50
2023-05-24T09:46:26.083Z,22.50
2023-05-24T09:47:26.146Z,22.50
2023-05-24T09:48:26.081Z,22.50
2023-05-24T09:49:26.103Z,22.50
2023-05-24T09:50:26.037Z,22.50
2023-05-24T09:51:26.221Z,22.50
2023-05-24T09:52:26.020Z,22.50
2023-05-24T09:53:26.064Z,22.50
2023-05-24T09:54:25.988Z,28.12
2023-05-24T09:55:26.032Z,28.12
2023-05-24T09:56:26.034Z,33.75
2023-05-24T09:57:26.072Z,33.75
2023-05-24T09:58:25.946Z,39.37
2023-05-24T09:59:25.992Z,39.37
2023-05-24T10:00:25.926Z,45.00
2023-05-24T10:01:26.041Z,45.00
2023-05-24T10:02:25.946Z,45.00
2023-05-24T10:03:26.079Z,45.00
2023-05-24T10:04:25.935Z,39.37
2023-05-24T10:05:25.925Z,39.37
2023-05-24T10:06:25.986Z,39.37
2023-05-24T10:07:25.920Z,33.75
2023-05-24T10:08:25.849Z,33.75
2023-05-24T10:09:25.896Z,33.75
2023-05-24T10:10:25.825Z,33.75
2023-05-24T10:11:25.900Z,33.75
2023-05-24T10:12:25.800Z,28.12
2023-05-24T10:13:25.870Z,28.12
2023-05-24T10:14:25.813Z,22.50
2023-05-24T10:15:25.970Z,22.50
2023-05-24T10:16:25.868Z,16.87
2023-05-24T10:17:25.830Z,16.87
2023-05-24T10:18:25.736Z,16.87
2023-05-24T10:19:25.802Z,16.87
2023-05-24T10:20:25.818Z,16.87
2023-05-24T10:21:25.808Z,16.87
2023-05-24T10:22:25.698Z,16.87
2023-05-24T10:23:25.740Z,16.87
2023-05-24T10:24:25.691Z,16.87
2023-05-24T10:25:25.745Z,16.87
2023-05-24T10:26:25.655Z,16.87
2023-05-24T10:27:25.711Z,16.87
2023-05-24T10:28:25.653Z,16.87
2023-05-24T10:29:25.690Z,16.87
2023-05-24T10:30:25.610Z,22.50
2023-05-24T10:31:25.737Z,22.50
2023-05-24T10:32:25.635Z,22.50
2023-05-24T10:33:25.634Z,22.50
2023-05-24T10:34:25.566Z,22.50
2023-05-24T10:35:25.606Z,22.50
2023-05-24T10:36:25.547Z,28.12
2023-05-24T10:37:25.595Z,28.12
2023-05-24T10:38:25.539Z,28.12
2023-05-24T10:39:25.577Z,33.75
2023-05-24T10:40:25.598Z,33.75
2023-05-24T10:41:25.561Z,33.75
2023-05-24T10:42:25.497Z,33.75
2023-05-24T10:43:25.530Z,39.37
2023-05-24T10:44:25.463Z,45.00
2023-05-24T10:45:25.513Z,45.00
2023-05-24T10:46:25.531Z,39.37
2023-05-24T10:47:25.489Z,33.75
2023-05-24T10:48:25.416Z,28.12
2023-05-24T10:49:25.461Z,28.12
2023-05-24T10:50:25.398Z,28.12
2023-05-24T10:51:25.437Z,28.12
2023-05-24T10:52:25.372Z,28.12
2023-05-24T10:53:25.424Z,28.12
2023-05-24T10:54:25.356Z,28.12
2023-05-24T10:55:25.393Z,28.12
2023-05-24T10:56:25.344Z,28.12
2023-05-24T10:57:25.371Z,28.12
2023-05-24T10:58:25.304Z,28.12
2023-05-24T10:59:25.369Z,28.12
2023-05-24T11:01:24.352Z,28.12
2023-05-24T11:02:25.373Z,28.12
2023-05-24T11:03:25.280Z,28.12
2023-05-24T11:04:25.323Z,33.75
2023-05-24T11:05:25.244Z,33.75
2023-05-24T11:06:25.293Z,33.75
2023-05-24T11:07:25.248Z,39.37
2023-05-24T11:08:25.434Z,39.37
2023-05-24T11:09:25.217Z,45.00
2023-05-24T11:10:25.252Z,50.62
2023-05-24T11:11:28.003Z,56.25
2023-05-24T11:12:25.232Z,61.87
2023-05-24T11:13:25.139Z,61.87
2023-05-24T11:14:25.218Z,67.50
2023-05-24T11:15:25.129Z,67.50
2023-05-24T11:16:25.206Z,0.00
2023-05-24T11:17:25.149Z,16.87
2023-05-24T11:18:25.191Z,16.87
2023-05-24T11:19:25.074Z,16.87
2023-05-24T11:20:25.168Z,16.87
2023-05-24T11:21:25.062Z,11.25
2023-05-24T11:22:25.196Z,11.25
2023-05-24T11:23:25.047Z,11.25
2023-05-24T11:24:25.102Z,11.25
2023-05-24T11:25:25.017Z,11.25
2023-05-24T11:26:25.096Z,11.25
2023-05-24T11:27:24.996Z,16.87
2023-05-24T11:28:25.134Z,16.87
2023-05-24T11:29:24.974Z,11.25
2023-05-24T11:30:25.034Z,16.87
2023-05-24T11:31:25.156Z,16.87
2023-05-24T11:32:25.096Z,16.87
2023-05-24T11:33:24.937Z,16.87
2023-05-24T11:34:25.015Z,11.25
2023-05-24T11:35:24.908Z,16.87
2023-05-24T11:36:24.983Z,11.25
2023-05-24T11:37:38.575Z,11.25
2023-05-24T11:38:25.199Z,11.25
2023-05-24T11:39:24.872Z,16.87
2023-05-24T11:40:24.925Z,16.87
2023-05-24T11:41:24.843Z,11.25
2023-05-24T11:42:24.981Z,11.25
2023-05-24T11:43:24.816Z,11.25
2023-05-24T11:44:24.900Z,5.62
2023-05-24T11:45:24.799Z,5.62
2023-05-24T11:46:24.990Z,11.25
2023-05-24T11:47:24.813Z,11.25
2023-05-24T11:48:24.859Z,11.25
2023-05-24T11:49:24.758Z,11.25
2023-05-24T11:50:45.862Z,5.62
2023-05-24T11:51:24.734Z,5.62
2023-05-24T11:52:24.810Z,5.62
2023-05-24T11:53:24.717Z,5.62
2023-05-24T11:54:24.775Z,5.62
2023-05-24T11:55:24.691Z,5.62
2023-05-24T11:56:24.755Z,5.62
2023-05-24T11:57:24.672Z,5.62
2023-05-24T11:58:24.748Z,5.62
2023-05-24T11:59:24.655Z,11.25
2023-05-24T12:00:24.715Z,16.87
2023-05-24T12:01:24.742Z,16.87
2023-05-24T12:02:24.698Z,11.25
2023-05-24T12:03:24.874Z,11.25
2023-05-24T12:04:24.667Z,11.25
2023-05-24T12:05:24.658Z,5.62
2023-05-24T12:06:24.588Z,5.62
2023-05-24T12:07:24.623Z,11.25
2023-05-24T12:08:24.579Z,11.25
2023-05-24T12:09:24.615Z,11.25
2023-05-24T12:10:24.544Z,11.25
2023-05-24T12:11:24.622Z,5.62
2023-05-24T12:12:30.456Z,5.62
2023-05-24T12:13:24.583Z,11.25
2023-05-24T12:14:24.518Z,11.25
2023-05-24T12:15:24.562Z,11.25
2023-05-24T12:16:24.521Z,11.25
2023-05-24T12:17:24.562Z,11.25
2023-05-24T12:18:24.469Z,11.25
2023-05-24T12:19:33.098Z,11.25
2023-05-24T12:20:24.480Z,11.25
2023-05-24T12:21:24.486Z,11.25
2023-05-24T12:22:24.416Z,11.25
2023-05-24T12:23:24.467Z,11.25
2023-05-24T12:24:24.396Z,5.62
2023-05-24T12:25:24.446Z,5.62
2023-05-24T12:26:24.374Z,5.62
2023-05-24T12:27:24.411Z,5.62
2023-05-24T12:28:24.357Z,5.62
2023-05-24T12:29:24.406Z,5.62
2023-05-24T12:30:24.323Z,5.62
2023-05-24T12:31:24.404Z,5.62
2023-05-24T12:32:24.318Z,11.25
2023-05-24T12:33:24.364Z,11.25
2023-05-24T12:34:24.272Z,11.25
2023-05-24T12:35:24.344Z,11.25
2023-05-24T12:36:24.263Z,11.25
2023-05-24T12:37:24.327Z,11.25
2023-05-24T12:38:24.263Z,5.62
2023-05-24T12:39:24.308Z,5.62
2023-05-24T12:40:24.230Z,5.62
2023-05-24T12:41:24.274Z,5.62
2023-05-24T12:42:24.190Z,5.62
2023-05-24T12:43:24.264Z,5.62
2023-05-24T12:44:24.176Z,5.62
2023-05-24T12:45:24.250Z,11.25
2023-05-24T12:46:24.167Z,11.25
2023-05-24T12:47:24.299Z,11.25
2023-05-24T12:48:24.124Z,11.25
2023-05-24T12:49:24.215Z,11.25
2023-05-24T12:50:24.103Z,11.25
2023-05-24T12:51:24.193Z,11.25
2023-05-24T12:52:24.761Z,5.62
2023-05-24T12:53:24.141Z,5.62
2023-05-24T12:54:24.069Z,5.62
2023-05-24T12:55:24.170Z,5.62
2023-05-24T12:56:24.040Z,5.62
2023-05-24T12:57:24.108Z,5.62
2023-05-24T12:58:24.022Z,0.00
2023-05-24T12:59:24.166Z,0.00
2023-05-24T13:00:24.010Z,0.00
2023-05-24T13:01:24.128Z,0.00
2023-05-24T13:02:24.001Z,0.00